sensor_id;sensor_type;location;lat;lon;timestamp;P1;durP1;ratioP1;P2;durP2;ratioP2
67798;SDS011;54596;43.216;27.904;2022-11-12T00:00:44;19.20;;;14.93;;
67798;SDS011;54596;43.216;27.904;2022-11-12T00:03:09;18.88;;;14.50;;
67798;SDS011;54596;43.216;27.904;2022-11-12T00:05:35;20.05;;;14.80;;
67798;SDS011;54596;43.216;27.904;2022-11-12T00:08:01;20.77;;;14.80;;
67798;SDS011;54596;43.216;27.904;2022-11-12T00:10:27;19.77;;;15.40;;
67798;SDS011;54596;43.216;27.904;2022-11-12T00:12:53;20.90;;;14.75;;
67798;SDS011;54596;43.216;27.904;2022-11-12T00:15:19;19.33;;;14.43;;
67798;SDS011;54596;43.216;27.904;2022-11-12T00:17:44;20.10;;;14.55;;
67798;SDS011;54596;43.216;27.904;2022-11-12T00:20:10;19.48;;;14.27;;
67798;SDS011;54596;43.216;27.904;2022-11-12T00:22:35;19.67;;;14.45;;
67798;SDS011;54596;43.216;27.904;2022-11-12T00:25:01;19.52;;;14.38;;
67798;SDS011;54596;43.216;27.904;2022-11-12T00:27:27;18.90;;;14.05;;
67798;SDS011;54596;43.216;27.904;2022-11-12T00:29:53;19.92;;;14.70;;
67798;SDS011;54596;43.216;27.904;2022-11-12T00:32:18;19.45;;;14.68;;
67798;SDS011;54596;43.216;27.904;2022-11-12T00:34:44;18.90;;;14.30;;
67798;SDS011;54596;43.216;27.904;2022-11-12T00:37:10;19.15;;;14.73;;
67798;SDS011;54596;43.216;27.904;2022-11-12T00:39:35;21.63;;;14.50;;
67798;SDS011;54596;43.216;27.904;2022-11-12T00:42:01;18.90;;;14.63;;
67798;SDS011;54596;43.216;27.904;2022-11-12T00:44:26;18.95;;;13.77;;
67798;SDS011;54596;43.216;27.904;2022-11-12T00:46:53;19.02;;;14.38;;
67798;SDS011;54596;43.216;27.904;2022-11-12T00:49:19;19.77;;;14.38;;
67798;SDS011;54596;43.216;27.904;2022-11-12T00:51:44;19.88;;;14.55;;
67798;SDS011;54596;43.216;27.904;2022-11-12T00:54:10;19.52;;;13.98;;
67798;SDS011;54596;43.216;27.904;2022-11-12T00:56:35;20.23;;;14.40;;
67798;SDS011;54596;43.216;27.904;2022-11-12T00:59:02;19.55;;;13.95;;
67798;SDS011;54596;43.216;27.904;2022-11-12T01:01:27;21.52;;;14.90;;
67798;SDS011;54596;43.216;27.904;2022-11-12T01:03:53;21.00;;;14.50;;
67798;SDS011;54596;43.216;27.904;2022-11-12T01:06:19;17.95;;;13.95;;
67798;SDS011;54596;43.216;27.904;2022-11-12T01:08:46;21.45;;;14.52;;
67798;SDS011;54596;43.216;27.904;2022-11-12T01:11:19;20.35;;;14.55;;
67798;SDS011;54596;43.216;27.904;2022-11-12T01:13:51;20.02;;;14.93;;
67798;SDS011;54596;43.216;27.904;2022-11-12T01:16:19;20.80;;;15.73;;
67798;SDS011;54596;43.216;27.904;2022-11-12T01:18:46;21.35;;;15.20;;
67798;SDS011;54596;43.216;27.904;2022-11-12T01:21:15;20.90;;;15.60;;
67798;SDS011;54596;43.216;27.904;2022-11-12T01:23:41;21.27;;;15.55;;
67798;SDS011;54596;43.216;27.904;2022-11-12T01:26:11;21.05;;;15.50;;
67798;SDS011;54596;43.216;27.904;2022-11-12T01:28:38;22.45;;;16.33;;
67798;SDS011;54596;43.216;27.904;2022-11-12T01:33:41;20.95;;;15.10;;
67798;SDS011;54596;43.216;27.904;2022-11-12T01:36:08;20.75;;;15.10;;
67798;SDS011;54596;43.216;27.904;2022-11-12T01:38:35;19.83;;;15.05;;
67798;SDS011;54596;43.216;27.904;2022-11-12T01:41:01;20.23;;;14.35;;
67798;SDS011;54596;43.216;27.904;2022-11-12T01:43:28;20.13;;;14.63;;
67798;SDS011;54596;43.216;27.904;2022-11-12T01:45:53;19.50;;;14.10;;
67798;SDS011;54596;43.216;27.904;2022-11-12T01:48:30;19.80;;;14.25;;
67798;SDS011;54596;43.216;27.904;2022-11-12T01:51:06;18.90;;;14.23;;
67798;SDS011;54596;43.216;27.904;2022-11-12T01:53:35;19.55;;;13.98;;
67798;SDS011;54596;43.216;27.904;2022-11-12T01:56:05;20.58;;;15.40;;
67798;SDS011;54596;43.216;27.904;2022-11-12T01:58:31;19.10;;;14.13;;
67798;SDS011;54596;43.216;27.904;2022-11-12T02:00:59;20.65;;;15.18;;
67798;SDS011;54596;43.216;27.904;2022-11-12T02:03:26;20.13;;;14.73;;
67798;SDS011;54596;43.216;27.904;2022-11-12T02:05:54;21.67;;;15.63;;
67798;SDS011;54596;43.216;27.904;2022-11-12T02:08:23;20.90;;;15.38;;
67798;SDS011;54596;43.216;27.904;2022-11-12T02:10:49;20.70;;;15.30;;
67798;SDS011;54596;43.216;27.904;2022-11-12T02:13:15;20.30;;;14.73;;
67798;SDS011;54596;43.216;27.904;2022-11-12T02:16:04;19.77;;;14.55;;
67798;SDS011;54596;43.216;27.904;2022-11-12T02:18:30;20.58;;;15.45;;
67798;SDS011;54596;43.216;27.904;2022-11-12T02:20:56;21.08;;;15.15;;
67798;SDS011;54596;43.216;27.904;2022-11-12T02:23:23;20.80;;;15.10;;
67798;SDS011;54596;43.216;27.904;2022-11-12T02:25:48;20.58;;;15.13;;
67798;SDS011;54596;43.216;27.904;2022-11-12T02:28:14;19.55;;;14.02;;
67798;SDS011;54596;43.216;27.904;2022-11-12T02:30:42;20.13;;;14.40;;
67798;SDS011;54596;43.216;27.904;2022-11-12T02:33:10;18.38;;;13.70;;
67798;SDS011;54596;43.216;27.904;2022-11-12T02:35:35;18.17;;;13.27;;
67798;SDS011;54596;43.216;27.904;2022-11-12T02:38:01;18.38;;;13.63;;
67798;SDS011;54596;43.216;27.904;2022-11-12T02:40:27;20.63;;;14.07;;
67798;SDS011;54596;43.216;27.904;2022-11-12T02:42:52;19.95;;;13.98;;
67798;SDS011;54596;43.216;27.904;2022-11-12T02:45:18;19.73;;;14.35;;
67798;SDS011;54596;43.216;27.904;2022-11-12T02:47:44;20.40;;;15.07;;
67798;SDS011;54596;43.216;27.904;2022-11-12T02:50:10;20.88;;;15.80;;
67798;SDS011;54596;43.216;27.904;2022-11-12T02:52:36;21.63;;;15.85;;
67798;SDS011;54596;43.216;27.904;2022-11-12T02:55:04;22.95;;;17.00;;
67798;SDS011;54596;43.216;27.904;2022-11-12T02:57:33;24.85;;;17.40;;
67798;SDS011;54596;43.216;27.904;2022-11-12T02:59:59;23.73;;;16.88;;
67798;SDS011;54596;43.216;27.904;2022-11-12T03:02:25;23.08;;;16.48;;
67798;SDS011;54596;43.216;27.904;2022-11-12T03:04:50;20.17;;;14.77;;
67798;SDS011;54596;43.216;27.904;2022-11-12T03:07:16;21.65;;;16.27;;
67798;SDS011;54596;43.216;27.904;2022-11-12T03:09:41;22.25;;;16.25;;
67798;SDS011;54596;43.216;27.904;2022-11-12T03:12:07;24.38;;;16.58;;
67798;SDS011;54596;43.216;27.904;2022-11-12T03:14:32;23.52;;;16.85;;
67798;SDS011;54596;43.216;27.904;2022-11-12T03:16:58;22.05;;;16.17;;
67798;SDS011;54596;43.216;27.904;2022-11-12T03:19:23;19.85;;;15.02;;
67798;SDS011;54596;43.216;27.904;2022-11-12T03:21:49;20.77;;;15.48;;
67798;SDS011;54596;43.216;27.904;2022-11-12T03:24:14;20.38;;;13.35;;
67798;SDS011;54596;43.216;27.904;2022-11-12T03:26:40;20.25;;;14.13;;
67798;SDS011;54596;43.216;27.904;2022-11-12T03:29:05;17.85;;;13.15;;
67798;SDS011;54596;43.216;27.904;2022-11-12T03:31:31;18.88;;;13.63;;
67798;SDS011;54596;43.216;27.904;2022-11-12T03:33:56;18.60;;;13.65;;
67798;SDS011;54596;43.216;27.904;2022-11-12T03:36:22;17.90;;;13.43;;
67798;SDS011;54596;43.216;27.904;2022-11-12T03:38:47;19.13;;;12.90;;
67798;SDS011;54596;43.216;27.904;2022-11-12T03:41:12;19.38;;;13.30;;
67798;SDS011;54596;43.216;27.904;2022-11-12T03:43:38;20.15;;;14.15;;
67798;SDS011;54596;43.216;27.904;2022-11-12T03:46:03;19.60;;;14.38;;
67798;SDS011;54596;43.216;27.904;2022-11-12T03:48:29;19.50;;;13.93;;
67798;SDS011;54596;43.216;27.904;2022-11-12T03:50:58;19.13;;;14.30;;
67798;SDS011;54596;43.216;27.904;2022-11-12T03:53:24;18.38;;;13.75;;
67798;SDS011;54596;43.216;27.904;2022-11-12T03:55:50;19.77;;;13.68;;
67798;SDS011;54596;43.216;27.904;2022-11-12T03:58:16;19.48;;;14.05;;
67798;SDS011;54596;43.216;27.904;2022-11-12T04:00:42;17.67;;;12.50;;
67798;SDS011;54596;43.216;27.904;2022-11-12T04:03:07;17.08;;;12.73;;
67798;SDS011;54596;43.216;27.904;2022-11-12T04:05:33;17.33;;;12.07;;
67798;SDS011;54596;43.216;27.904;2022-11-12T04:08:18;17.33;;;12.60;;
67798;SDS011;54596;43.216;27.904;2022-11-12T04:11:01;18.33;;;13.73;;
67798;SDS011;54596;43.216;27.904;2022-11-12T04:13:40;18.52;;;13.25;;
67798;SDS011;54596;43.216;27.904;2022-11-12T04:16:07;18.67;;;13.43;;
67798;SDS011;54596;43.216;27.904;2022-11-12T04:18:57;19.75;;;13.80;;
67798;SDS011;54596;43.216;27.904;2022-11-12T04:21:43;20.77;;;15.15;;
67798;SDS011;54596;43.216;27.904;2022-11-12T04:24:28;18.60;;;13.35;;
67798;SDS011;54596;43.216;27.904;2022-11-12T04:27:15;20.52;;;14.25;;
67798;SDS011;54596;43.216;27.904;2022-11-12T04:29:43;22.65;;;15.05;;
67798;SDS011;54596;43.216;27.904;2022-11-12T04:32:27;22.15;;;14.75;;
67798;SDS011;54596;43.216;27.904;2022-11-12T04:34:54;22.35;;;14.60;;
67798;SDS011;54596;43.216;27.904;2022-11-12T04:37:20;20.05;;;14.93;;
67798;SDS011;54596;43.216;27.904;2022-11-12T04:39:46;21.05;;;14.70;;
67798;SDS011;54596;43.216;27.904;2022-11-12T04:42:12;21.45;;;14.57;;
67798;SDS011;54596;43.216;27.904;2022-11-12T04:44:56;20.00;;;14.52;;
67798;SDS011;54596;43.216;27.904;2022-11-12T04:47:26;21.23;;;15.00;;
67798;SDS011;54596;43.216;27.904;2022-11-12T04:49:53;20.77;;;14.77;;
67798;SDS011;54596;43.216;27.904;2022-11-12T04:52:18;21.48;;;15.65;;
67798;SDS011;54596;43.216;27.904;2022-11-12T04:54:44;20.13;;;15.02;;
67798;SDS011;54596;43.216;27.904;2022-11-12T04:57:09;21.55;;;15.85;;
67798;SDS011;54596;43.216;27.904;2022-11-12T04:59:34;23.13;;;16.33;;
67798;SDS011;54596;43.216;27.904;2022-11-12T05:02:00;22.75;;;16.63;;
67798;SDS011;54596;43.216;27.904;2022-11-12T05:04:25;21.58;;;15.85;;
67798;SDS011;54596;43.216;27.904;2022-11-12T05:06:53;21.90;;;15.82;;
67798;SDS011;54596;43.216;27.904;2022-11-12T05:09:20;21.75;;;16.20;;
67798;SDS011;54596;43.216;27.904;2022-11-12T05:11:47;22.80;;;16.38;;
67798;SDS011;54596;43.216;27.904;2022-11-12T05:14:13;21.17;;;15.52;;
67798;SDS011;54596;43.216;27.904;2022-11-12T05:16:38;20.40;;;15.43;;
67798;SDS011;54596;43.216;27.904;2022-11-12T05:19:04;22.52;;;15.10;;
67798;SDS011;54596;43.216;27.904;2022-11-12T05:21:30;19.20;;;14.65;;
67798;SDS011;54596;43.216;27.904;2022-11-12T05:24:14;20.30;;;15.48;;
67798;SDS011;54596;43.216;27.904;2022-11-12T05:26:39;21.65;;;15.85;;
67798;SDS011;54596;43.216;27.904;2022-11-12T05:29:05;20.70;;;15.73;;
67798;SDS011;54596;43.216;27.904;2022-11-12T05:31:31;21.40;;;16.30;;
67798;SDS011;54596;43.216;27.904;2022-11-12T05:33:57;22.23;;;16.50;;
67798;SDS011;54596;43.216;27.904;2022-11-12T05:36:23;21.30;;;16.60;;
67798;SDS011;54596;43.216;27.904;2022-11-12T05:38:48;19.55;;;15.18;;
67798;SDS011;54596;43.216;27.904;2022-11-12T05:41:13;20.63;;;15.75;;
67798;SDS011;54596;43.216;27.904;2022-11-12T05:43:39;20.95;;;15.52;;
67798;SDS011;54596;43.216;27.904;2022-11-12T05:46:04;19.92;;;14.55;;
67798;SDS011;54596;43.216;27.904;2022-11-12T05:48:30;19.45;;;12.82;;
67798;SDS011;54596;43.216;27.904;2022-11-12T05:50:55;19.30;;;14.10;;
67798;SDS011;54596;43.216;27.904;2022-11-12T05:53:21;20.23;;;14.48;;
67798;SDS011;54596;43.216;27.904;2022-11-12T05:55:46;17.75;;;12.38;;
67798;SDS011;54596;43.216;27.904;2022-11-12T05:58:12;16.65;;;12.10;;
67798;SDS011;54596;43.216;27.904;2022-11-12T06:00:56;17.55;;;12.40;;
67798;SDS011;54596;43.216;27.904;2022-11-12T06:03:21;16.25;;;11.90;;
67798;SDS011;54596;43.216;27.904;2022-11-12T06:05:48;16.23;;;12.07;;
67798;SDS011;54596;43.216;27.904;2022-11-12T06:08:13;15.45;;;11.38;;
67798;SDS011;54596;43.216;27.904;2022-11-12T06:10:39;15.52;;;11.55;;
67798;SDS011;54596;43.216;27.904;2022-11-12T06:13:04;17.40;;;12.00;;
67798;SDS011;54596;43.216;27.904;2022-11-12T06:15:30;16.52;;;12.27;;
67798;SDS011;54596;43.216;27.904;2022-11-12T06:17:56;17.58;;;12.60;;
67798;SDS011;54596;43.216;27.904;2022-11-12T06:20:21;17.77;;;12.65;;
67798;SDS011;54596;43.216;27.904;2022-11-12T06:22:48;16.05;;;12.00;;
67798;SDS011;54596;43.216;27.904;2022-11-12T06:25:14;16.30;;;12.18;;
67798;SDS011;54596;43.216;27.904;2022-11-12T06:27:40;15.63;;;11.68;;
67798;SDS011;54596;43.216;27.904;2022-11-12T06:30:06;15.35;;;11.70;;
67798;SDS011;54596;43.216;27.904;2022-11-12T06:32:32;14.93;;;11.50;;
67798;SDS011;54596;43.216;27.904;2022-11-12T06:34:58;16.00;;;12.25;;
67798;SDS011;54596;43.216;27.904;2022-11-12T06:37:24;15.82;;;12.18;;
67798;SDS011;54596;43.216;27.904;2022-11-12T06:39:50;16.13;;;11.40;;
67798;SDS011;54596;43.216;27.904;2022-11-12T06:42:15;15.75;;;11.55;;
67798;SDS011;54596;43.216;27.904;2022-11-12T06:44:41;15.30;;;11.15;;
67798;SDS011;54596;43.216;27.904;2022-11-12T06:47:07;16.17;;;11.57;;
67798;SDS011;54596;43.216;27.904;2022-11-12T06:49:33;14.82;;;10.50;;
67798;SDS011;54596;43.216;27.904;2022-11-12T06:51:59;14.30;;;10.60;;
67798;SDS011;54596;43.216;27.904;2022-11-12T06:54:24;15.45;;;10.70;;
67798;SDS011;54596;43.216;27.904;2022-11-12T06:56:50;15.70;;;11.60;;
67798;SDS011;54596;43.216;27.904;2022-11-12T06:59:16;15.85;;;11.85;;
67798;SDS011;54596;43.216;27.904;2022-11-12T07:01:41;17.05;;;11.88;;
67798;SDS011;54596;43.216;27.904;2022-11-12T07:04:07;19.55;;;12.40;;
67798;SDS011;54596;43.216;27.904;2022-11-12T07:06:32;17.85;;;13.73;;
67798;SDS011;54596;43.216;27.904;2022-11-12T07:08:58;18.45;;;12.57;;
67798;SDS011;54596;43.216;27.904;2022-11-12T07:11:23;17.98;;;13.45;;
67798;SDS011;54596;43.216;27.904;2022-11-12T07:13:49;17.13;;;12.52;;
67798;SDS011;54596;43.216;27.904;2022-11-12T07:16:14;18.75;;;12.95;;
67798;SDS011;54596;43.216;27.904;2022-11-12T07:18:44;16.80;;;12.93;;
67798;SDS011;54596;43.216;27.904;2022-11-12T07:21:12;17.83;;;12.65;;
67798;SDS011;54596;43.216;27.904;2022-11-12T07:23:42;17.27;;;13.30;;
67798;SDS011;54596;43.216;27.904;2022-11-12T07:26:15;17.63;;;12.82;;
67798;SDS011;54596;43.216;27.904;2022-11-12T07:28:42;17.60;;;12.88;;
67798;SDS011;54596;43.216;27.904;2022-11-12T07:31:10;17.10;;;12.15;;
67798;SDS011;54596;43.216;27.904;2022-11-12T07:33:36;16.25;;;11.60;;
67798;SDS011;54596;43.216;27.904;2022-11-12T07:36:06;15.35;;;11.38;;
67798;SDS011;54596;43.216;27.904;2022-11-12T07:38:34;15.75;;;11.32;;
67798;SDS011;54596;43.216;27.904;2022-11-12T07:41:02;16.73;;;11.15;;
67798;SDS011;54596;43.216;27.904;2022-11-12T07:43:33;15.63;;;11.40;;
67798;SDS011;54596;43.216;27.904;2022-11-12T07:46:00;18.20;;;11.13;;
67798;SDS011;54596;43.216;27.904;2022-11-12T07:48:27;16.48;;;11.63;;
67798;SDS011;54596;43.216;27.904;2022-11-12T07:51:07;16.02;;;11.43;;
67798;SDS011;54596;43.216;27.904;2022-11-12T07:53:39;40.38;;;13.10;;
67798;SDS011;54596;43.216;27.904;2022-11-12T07:56:05;16.20;;;11.07;;
67798;SDS011;54596;43.216;27.904;2022-11-12T07:58:31;15.05;;;10.07;;
67798;SDS011;54596;43.216;27.904;2022-11-12T08:01:16;14.38;;;10.27;;
67798;SDS011;54596;43.216;27.904;2022-11-12T08:03:56;16.10;;;10.65;;
67798;SDS011;54596;43.216;27.904;2022-11-12T08:06:25;16.88;;;11.10;;
67798;SDS011;54596;43.216;27.904;2022-11-12T08:08:52;13.77;;;10.00;;
67798;SDS011;54596;43.216;27.904;2022-11-12T08:11:18;12.10;;;8.60;;
67798;SDS011;54596;43.216;27.904;2022-11-12T08:13:44;13.48;;;9.52;;
67798;SDS011;54596;43.216;27.904;2022-11-12T08:16:09;14.38;;;9.93;;
67798;SDS011;54596;43.216;27.904;2022-11-12T08:18:35;15.88;;;10.27;;
67798;SDS011;54596;43.216;27.904;2022-11-12T08:21:01;15.70;;;10.73;;
67798;SDS011;54596;43.216;27.904;2022-11-12T08:23:28;14.77;;;11.02;;
67798;SDS011;54596;43.216;27.904;2022-11-12T08:25:57;16.10;;;10.88;;
67798;SDS011;54596;43.216;27.904;2022-11-12T08:28:23;14.55;;;10.30;;
67798;SDS011;54596;43.216;27.904;2022-11-12T08:30:49;16.80;;;10.20;;
67798;SDS011;54596;43.216;27.904;2022-11-12T08:33:15;14.35;;;10.00;;
67798;SDS011;54596;43.216;27.904;2022-11-12T08:35:40;16.10;;;11.10;;
67798;SDS011;54596;43.216;27.904;2022-11-12T08:38:06;16.17;;;9.80;;
67798;SDS011;54596;43.216;27.904;2022-11-12T08:40:33;15.10;;;10.48;;
67798;SDS011;54596;43.216;27.904;2022-11-12T08:42:59;16.63;;;10.38;;
67798;SDS011;54596;43.216;27.904;2022-11-12T08:45:26;15.35;;;10.13;;
67798;SDS011;54596;43.216;27.904;2022-11-12T08:47:57;16.13;;;10.27;;
67798;SDS011;54596;43.216;27.904;2022-11-12T08:50:23;15.48;;;10.48;;
67798;SDS011;54596;43.216;27.904;2022-11-12T08:52:49;16.77;;;10.55;;
67798;SDS011;54596;43.216;27.904;2022-11-12T08:55:14;16.98;;;10.23;;
67798;SDS011;54596;43.216;27.904;2022-11-12T08:57:40;16.23;;;10.50;;
67798;SDS011;54596;43.216;27.904;2022-11-12T09:00:10;16.88;;;10.43;;
67798;SDS011;54596;43.216;27.904;2022-11-12T09:02:37;14.88;;;10.00;;
67798;SDS011;54596;43.216;27.904;2022-11-12T09:05:03;14.73;;;9.65;;
67798;SDS011;54596;43.216;27.904;2022-11-12T09:07:29;16.67;;;10.10;;
67798;SDS011;54596;43.216;27.904;2022-11-12T09:09:58;14.02;;;9.52;;
67798;SDS011;54596;43.216;27.904;2022-11-12T09:12:23;14.38;;;9.95;;
67798;SDS011;54596;43.216;27.904;2022-11-12T09:14:49;15.95;;;9.27;;
67798;SDS011;54596;43.216;27.904;2022-11-12T09:17:14;15.48;;;9.75;;
67798;SDS011;54596;43.216;27.904;2022-11-12T09:19:40;13.55;;;8.55;;
67798;SDS011;54596;43.216;27.904;2022-11-12T09:22:05;14.50;;;9.13;;
67798;SDS011;54596;43.216;27.904;2022-11-12T09:24:31;14.77;;;8.73;;
67798;SDS011;54596;43.216;27.904;2022-11-12T09:26:56;13.45;;;8.95;;
67798;SDS011;54596;43.216;27.904;2022-11-12T09:29:22;14.70;;;8.90;;
67798;SDS011;54596;43.216;27.904;2022-11-12T09:31:47;13.15;;;8.77;;
67798;SDS011;54596;43.216;27.904;2022-11-12T09:34:13;14.50;;;8.38;;
67798;SDS011;54596;43.216;27.904;2022-11-12T09:36:38;13.98;;;8.77;;
67798;SDS011;54596;43.216;27.904;2022-11-12T09:39:04;13.23;;;8.10;;
67798;SDS011;54596;43.216;27.904;2022-11-12T09:44:00;11.98;;;6.05;;
67798;SDS011;54596;43.216;27.904;2022-11-12T09:46:30;14.15;;;7.22;;
67798;SDS011;54596;43.216;27.904;2022-11-12T09:49:02;14.32;;;7.40;;
67798;SDS011;54596;43.216;27.904;2022-11-12T09:51:54;12.27;;;7.60;;
67798;SDS011;54596;43.216;27.904;2022-11-12T09:54:29;13.80;;;7.28;;
67798;SDS011;54596;43.216;27.904;2022-11-12T09:56:56;11.57;;;6.95;;
67798;SDS011;54596;43.216;27.904;2022-11-12T09:59:23;12.35;;;7.07;;
67798;SDS011;54596;43.216;27.904;2022-11-12T10:08:01;15.05;;;8.18;;
67798;SDS011;54596;43.216;27.904;2022-11-12T10:10:48;16.73;;;9.10;;
67798;SDS011;54596;43.216;27.904;2022-11-12T10:21:40;14.25;;;8.90;;
67798;SDS011;54596;43.216;27.904;2022-11-12T10:24:21;14.90;;;8.35;;
67798;SDS011;54596;43.216;27.904;2022-11-12T10:26:48;14.18;;;9.13;;
67798;SDS011;54596;43.216;27.904;2022-11-12T10:32:23;15.93;;;8.02;;
67798;SDS011;54596;43.216;27.904;2022-11-12T10:34:48;15.13;;;8.85;;
67798;SDS011;54596;43.216;27.904;2022-11-12T10:39:45;15.10;;;9.10;;
67798;SDS011;54596;43.216;27.904;2022-11-12T10:42:12;15.88;;;8.98;;
67798;SDS011;54596;43.216;27.904;2022-11-12T10:44:40;18.00;;;10.30;;
67798;SDS011;54596;43.216;27.904;2022-11-12T10:47:21;14.80;;;8.90;;
67798;SDS011;54596;43.216;27.904;2022-11-12T10:53:00;14.38;;;8.20;;
67798;SDS011;54596;43.216;27.904;2022-11-12T10:55:32;14.32;;;8.43;;
67798;SDS011;54596;43.216;27.904;2022-11-12T11:08:41;15.60;;;8.43;;
67798;SDS011;54596;43.216;27.904;2022-11-12T11:11:44;15.93;;;10.00;;
67798;SDS011;54596;43.216;27.904;2022-11-12T11:16:53;17.55;;;9.55;;
67798;SDS011;54596;43.216;27.904;2022-11-12T11:19:41;16.52;;;10.75;;
67798;SDS011;54596;43.216;27.904;2022-11-12T11:24:54;16.08;;;9.88;;
67798;SDS011;54596;43.216;27.904;2022-11-12T11:27:48;17.63;;;11.30;;
67798;SDS011;54596;43.216;27.904;2022-11-12T11:30:23;21.73;;;12.17;;
67798;SDS011;54596;43.216;27.904;2022-11-12T11:39:08;21.92;;;13.43;;
67798;SDS011;54596;43.216;27.904;2022-11-12T11:44:18;21.23;;;13.60;;
67798;SDS011;54596;43.216;27.904;2022-11-12T11:52:06;17.83;;;11.98;;
67798;SDS011;54596;43.216;27.904;2022-11-12T11:54:48;18.50;;;12.25;;
67798;SDS011;54596;43.216;27.904;2022-11-12T11:57:41;19.20;;;12.20;;
67798;SDS011;54596;43.216;27.904;2022-11-12T12:00:33;21.77;;;12.68;;
67798;SDS011;54596;43.216;27.904;2022-11-12T12:03:21;18.95;;;12.05;;
67798;SDS011;54596;43.216;27.904;2022-11-12T12:11:43;23.67;;;14.05;;
67798;SDS011;54596;43.216;27.904;2022-11-12T12:22:28;18.85;;;12.13;;
67798;SDS011;54596;43.216;27.904;2022-11-12T12:25:08;19.10;;;12.25;;
67798;SDS011;54596;43.216;27.904;2022-11-12T12:27:40;17.70;;;12.10;;
67798;SDS011;54596;43.216;27.904;2022-11-12T12:30:21;18.45;;;11.85;;
67798;SDS011;54596;43.216;27.904;2022-11-12T12:43:34;19.48;;;11.55;;
67798;SDS011;54596;43.216;27.904;2022-11-12T12:46:03;17.42;;;11.70;;
67798;SDS011;54596;43.216;27.904;2022-11-12T12:50:57;20.58;;;12.32;;
67798;SDS011;54596;43.216;27.904;2022-11-12T12:55:54;20.17;;;12.40;;
67798;SDS011;54596;43.216;27.904;2022-11-12T12:58:26;19.13;;;12.63;;
67798;SDS011;54596;43.216;27.904;2022-11-12T13:01:35;21.63;;;12.55;;
67798;SDS011;54596;43.216;27.904;2022-11-12T13:19:26;18.67;;;11.95;;
67798;SDS011;54596;43.216;27.904;2022-11-12T13:25:03;22.33;;;15.68;;
67798;SDS011;54596;43.216;27.904;2022-11-12T13:37:43;18.98;;;12.95;;
67798;SDS011;54596;43.216;27.904;2022-11-12T13:40:40;24.23;;;15.75;;
67798;SDS011;54596;43.216;27.904;2022-11-12T13:45:45;20.13;;;12.85;;
67798;SDS011;54596;43.216;27.904;2022-11-12T13:48:28;23.67;;;15.70;;
67798;SDS011;54596;43.216;27.904;2022-11-12T13:51:01;25.77;;;14.85;;
67798;SDS011;54596;43.216;27.904;2022-11-12T13:53:30;21.08;;;13.13;;
67798;SDS011;54596;43.216;27.904;2022-11-12T13:55:57;23.75;;;14.02;;
67798;SDS011;54596;43.216;27.904;2022-11-12T13:58:27;27.88;;;16.48;;
67798;SDS011;54596;43.216;27.904;2022-11-12T14:00:55;22.77;;;13.23;;
67798;SDS011;54596;43.216;27.904;2022-11-12T14:03:23;20.80;;;12.75;;
67798;SDS011;54596;43.216;27.904;2022-11-12T14:05:52;24.58;;;16.02;;
67798;SDS011;54596;43.216;27.904;2022-11-12T14:20:18;25.00;;;14.85;;
67798;SDS011;54596;43.216;27.904;2022-11-12T14:22:44;20.95;;;12.27;;
67798;SDS011;54596;43.216;27.904;2022-11-12T14:25:26;20.88;;;13.30;;
67798;SDS011;54596;43.216;27.904;2022-11-12T14:27:53;18.17;;;11.82;;
67798;SDS011;54596;43.216;27.904;2022-11-12T14:30:20;22.27;;;12.65;;
67798;SDS011;54596;43.216;27.904;2022-11-12T14:32:56;19.35;;;12.30;;
67798;SDS011;54596;43.216;27.904;2022-11-12T14:37:50;19.30;;;12.23;;
67798;SDS011;54596;43.216;27.904;2022-11-12T14:40:23;21.70;;;13.27;;
67798;SDS011;54596;43.216;27.904;2022-11-12T14:42:50;24.45;;;14.38;;
67798;SDS011;54596;43.216;27.904;2022-11-12T14:45:17;20.95;;;14.25;;
67798;SDS011;54596;43.216;27.904;2022-11-12T14:47:45;20.65;;;13.90;;
67798;SDS011;54596;43.216;27.904;2022-11-12T14:50:16;21.65;;;13.50;;
67798;SDS011;54596;43.216;27.904;2022-11-12T14:52:47;20.85;;;13.32;;
67798;SDS011;54596;43.216;27.904;2022-11-12T14:55:18;20.10;;;13.68;;
67798;SDS011;54596;43.216;27.904;2022-11-12T14:57:46;22.00;;;14.38;;
67798;SDS011;54596;43.216;27.904;2022-11-12T15:00:20;21.95;;;14.05;;
67798;SDS011;54596;43.216;27.904;2022-11-12T15:03:01;20.05;;;12.73;;
67798;SDS011;54596;43.216;27.904;2022-11-12T15:05:28;19.98;;;13.70;;
67798;SDS011;54596;43.216;27.904;2022-11-12T15:10:32;24.75;;;14.77;;
67798;SDS011;54596;43.216;27.904;2022-11-12T15:13:01;22.08;;;14.88;;
67798;SDS011;54596;43.216;27.904;2022-11-12T15:15:33;20.83;;;13.93;;
67798;SDS011;54596;43.216;27.904;2022-11-12T15:18:23;21.15;;;14.45;;
67798;SDS011;54596;43.216;27.904;2022-11-12T15:23:25;23.20;;;14.45;;
67798;SDS011;54596;43.216;27.904;2022-11-12T15:25:57;26.20;;;15.27;;
67798;SDS011;54596;43.216;27.904;2022-11-12T15:31:06;22.17;;;14.73;;
67798;SDS011;54596;43.216;27.904;2022-11-12T15:33:42;22.75;;;14.63;;
67798;SDS011;54596;43.216;27.904;2022-11-12T15:36:14;24.17;;;15.18;;
67798;SDS011;54596;43.216;27.904;2022-11-12T15:38:45;23.15;;;14.20;;
67798;SDS011;54596;43.216;27.904;2022-11-12T15:41:20;21.65;;;13.98;;
67798;SDS011;54596;43.216;27.904;2022-11-12T15:43:48;22.30;;;14.73;;
67798;SDS011;54596;43.216;27.904;2022-11-12T15:46:14;23.85;;;14.80;;
67798;SDS011;54596;43.216;27.904;2022-11-12T15:48:40;23.35;;;14.43;;
67798;SDS011;54596;43.216;27.904;2022-11-12T15:51:07;23.30;;;14.35;;
67798;SDS011;54596;43.216;27.904;2022-11-12T15:53:34;22.92;;;14.15;;
67798;SDS011;54596;43.216;27.904;2022-11-12T15:55:59;20.58;;;14.20;;
67798;SDS011;54596;43.216;27.904;2022-11-12T15:58:31;22.85;;;15.27;;
67798;SDS011;54596;43.216;27.904;2022-11-12T16:00:59;21.63;;;14.18;;
67798;SDS011;54596;43.216;27.904;2022-11-12T16:03:24;24.92;;;15.02;;
67798;SDS011;54596;43.216;27.904;2022-11-12T16:05:50;23.40;;;14.82;;
67798;SDS011;54596;43.216;27.904;2022-11-12T16:08:16;22.23;;;14.57;;
67798;SDS011;54596;43.216;27.904;2022-11-12T16:10:43;23.80;;;16.10;;
67798;SDS011;54596;43.216;27.904;2022-11-12T16:13:16;25.02;;;15.57;;
67798;SDS011;54596;43.216;27.904;2022-11-12T16:15:48;24.27;;;16.00;;
67798;SDS011;54596;43.216;27.904;2022-11-12T16:18:15;22.25;;;14.70;;
67798;SDS011;54596;43.216;27.904;2022-11-12T16:20:41;136.45;;;20.25;;
67798;SDS011;54596;43.216;27.904;2022-11-12T16:23:06;22.88;;;15.27;;
67798;SDS011;54596;43.216;27.904;2022-11-12T16:25:32;27.60;;;14.57;;
67798;SDS011;54596;43.216;27.904;2022-11-12T16:28:00;23.73;;;14.77;;
67798;SDS011;54596;43.216;27.904;2022-11-12T16:30:29;24.77;;;16.20;;
67798;SDS011;54596;43.216;27.904;2022-11-12T16:32:57;23.25;;;14.25;;
67798;SDS011;54596;43.216;27.904;2022-11-12T16:35:23;21.23;;;14.65;;
67798;SDS011;54596;43.216;27.904;2022-11-12T16:37:51;24.27;;;15.30;;
67798;SDS011;54596;43.216;27.904;2022-11-12T16:40:19;25.73;;;14.90;;
67798;SDS011;54596;43.216;27.904;2022-11-12T16:42:47;22.85;;;14.88;;